sensor_id;sensor_type;location;lat;lon;timestamp;P1;durP1;ratioP1;P2;durP2;ratioP2
36105;SDS011;22159;55.736;38.048;2023-03-12T00:00:47;1.42;;;0.90;;
36105;SDS011;22159;55.736;38.048;2023-03-12T00:03:13;1.33;;;0.90;;
36105;SDS011;22159;55.736;38.048;2023-03-12T00:05:39;2.75;;;0.93;;
36105;SDS011;22159;55.736;38.048;2023-03-12T00:08:06;1.05;;;0.80;;
36105;SDS011;22159;55.736;38.048;2023-03-12T00:10:32;1.40;;;0.80;;
36105;SDS011;22159;55.736;38.048;2023-03-12T00:12:59;0.98;;;0.88;;
36105;SDS011;22159;55.736;38.048;2023-03-12T00:15:25;1.13;;;0.80;;
36105;SDS011;22159;55.736;38.048;2023-03-12T00:17:51;1.08;;;0.75;;
36105;SDS011;22159;55.736;38.048;2023-03-12T00:20:17;1.48;;;1.00;;
36105;SDS011;22159;55.736;38.048;2023-03-12T00:22:43;1.77;;;0.80;;
36105;SDS011;22159;55.736;38.048;2023-03-12T00:25:11;1.20;;;0.80;;
36105;SDS011;22159;55.736;38.048;2023-03-12T00:27:37;1.33;;;0.90;;
36105;SDS011;22159;55.736;38.048;2023-03-12T00:30:03;0.98;;;0.70;;
36105;SDS011;22159;55.736;38.048;2023-03-12T00:32:33;2.25;;;1.05;;
36105;SDS011;22159;55.736;38.048;2023-03-12T00:34:59;0.73;;;0.52;;
36105;SDS011;22159;55.736;38.048;2023-03-12T00:37:25;0.90;;;0.70;;
36105;SDS011;22159;55.736;38.048;2023-03-12T00:39:52;1.45;;;0.80;;
36105;SDS011;22159;55.736;38.048;2023-03-12T00:42:18;1.38;;;0.80;;
36105;SDS011;22159;55.736;38.048;2023-03-12T00:44:44;1.65;;;1.08;;
36105;SDS011;22159;55.736;38.048;2023-03-12T00:47:11;0.73;;;0.60;;
36105;SDS011;22159;55.736;38.048;2023-03-12T00:49:37;0.82;;;0.70;;
36105;SDS011;22159;55.736;38.048;2023-03-12T00:52:03;0.90;;;0.80;;
36105;SDS011;22159;55.736;38.048;2023-03-12T00:54:30;1.27;;;0.90;;
36105;SDS011;22159;55.736;38.048;2023-03-12T00:56:56;1.00;;;0.68;;
36105;SDS011;22159;55.736;38.048;2023-03-12T00:59:22;1.85;;;0.85;;
36105;SDS011;22159;55.736;38.048;2023-03-12T01:01:48;1.17;;;0.65;;
36105;SDS011;22159;55.736;38.048;2023-03-12T01:04:14;1.20;;;0.88;;
36105;SDS011;22159;55.736;38.048;2023-03-12T01:06:41;1.65;;;0.60;;
36105;SDS011;22159;55.736;38.048;2023-03-12T01:09:07;0.70;;;0.60;;
36105;SDS011;22159;55.736;38.048;2023-03-12T01:11:34;1.52;;;0.70;;
36105;SDS011;22159;55.736;38.048;2023-03-12T01:14:01;1.00;;;0.60;;
36105;SDS011;22159;55.736;38.048;2023-03-12T01:16:27;1.08;;;0.40;;
36105;SDS011;22159;55.736;38.048;2023-03-12T01:18:57;0.80;;;0.57;;
36105;SDS011;22159;55.736;38.048;2023-03-12T01:21:24;1.95;;;0.73;;
36105;SDS011;22159;55.736;38.048;2023-03-12T01:23:50;0.82;;;0.60;;
36105;SDS011;22159;55.736;38.048;2023-03-12T01:26:16;1.02;;;0.70;;
36105;SDS011;22159;55.736;38.048;2023-03-12T01:28:43;1.15;;;0.82;;
36105;SDS011;22159;55.736;38.048;2023-03-12T01:31:09;1.00;;;0.70;;
36105;SDS011;22159;55.736;38.048;2023-03-12T01:33:36;1.10;;;0.70;;
36105;SDS011;22159;55.736;38.048;2023-03-12T01:36:02;1.35;;;0.70;;
36105;SDS011;22159;55.736;38.048;2023-03-12T01:38:28;1.42;;;0.80;;
36105;SDS011;22159;55.736;38.048;2023-03-12T01:40:54;0.90;;;0.60;;
36105;SDS011;22159;55.736;38.048;2023-03-12T01:43:22;1.08;;;0.68;;
36105;SDS011;22159;55.736;38.048;2023-03-12T01:45:55;2.00;;;0.70;;
36105;SDS011;22159;55.736;38.048;2023-03-12T01:48:23;1.60;;;0.75;;
36105;SDS011;22159;55.736;38.048;2023-03-12T01:50:50;0.80;;;0.52;;
36105;SDS011;22159;55.736;38.048;2023-03-12T01:53:16;0.60;;;0.50;;
36105;SDS011;22159;55.736;38.048;2023-03-12T01:55:42;1.15;;;0.68;;
36105;SDS011;22159;55.736;38.048;2023-03-12T01:58:08;1.10;;;0.70;;
36105;SDS011;22159;55.736;38.048;2023-03-12T02:00:34;1.13;;;0.70;;
36105;SDS011;22159;55.736;38.048;2023-03-12T02:03:03;1.98;;;1.00;;
36105;SDS011;22159;55.736;38.048;2023-03-12T02:08:08;1.70;;;0.80;;
36105;SDS011;22159;55.736;38.048;2023-03-12T02:10:34;1.23;;;0.73;;
36105;SDS011;22159;55.736;38.048;2023-03-12T02:13:01;0.88;;;0.70;;
36105;SDS011;22159;55.736;38.048;2023-03-12T02:15:27;1.70;;;0.90;;
36105;SDS011;22159;55.736;38.048;2023-03-12T02:17:53;1.25;;;0.70;;
36105;SDS011;22159;55.736;38.048;2023-03-12T02:20:24;1.30;;;0.63;;
36105;SDS011;22159;55.736;38.048;2023-03-12T02:23:02;0.90;;;0.75;;
36105;SDS011;22159;55.736;38.048;2023-03-12T02:25:38;1.02;;;0.60;;
36105;SDS011;22159;55.736;38.048;2023-03-12T02:28:07;0.80;;;0.57;;
36105;SDS011;22159;55.736;38.048;2023-03-12T02:30:33;1.00;;;0.70;;
36105;SDS011;22159;55.736;38.048;2023-03-12T02:33:00;1.85;;;0.80;;
36105;SDS011;22159;55.736;38.048;2023-03-12T02:35:27;2.83;;;0.63;;
36105;SDS011;22159;55.736;38.048;2023-03-12T02:37:54;1.60;;;0.70;;
36105;SDS011;22159;55.736;38.048;2023-03-12T02:42:52;1.23;;;0.60;;
36105;SDS011;22159;55.736;38.048;2023-03-12T02:45:18;0.63;;;0.40;;
36105;SDS011;22159;55.736;38.048;2023-03-12T02:47:45;1.48;;;0.60;;
36105;SDS011;22159;55.736;38.048;2023-03-12T02:50:11;1.25;;;0.60;;
36105;SDS011;22159;55.736;38.048;2023-03-12T02:52:37;2.17;;;0.70;;
36105;SDS011;22159;55.736;38.048;2023-03-12T02:55:04;0.70;;;0.63;;
36105;SDS011;22159;55.736;38.048;2023-03-12T02:57:31;0.95;;;0.50;;
36105;SDS011;22159;55.736;38.048;2023-03-12T02:59:57;0.90;;;0.55;;
36105;SDS011;22159;55.736;38.048;2023-03-12T03:02:23;1.30;;;0.52;;
36105;SDS011;22159;55.736;38.048;2023-03-12T03:04:49;1.17;;;0.75;;
36105;SDS011;22159;55.736;38.048;2023-03-12T03:07:15;0.93;;;0.50;;
36105;SDS011;22159;55.736;38.048;2023-03-12T03:09:41;2.28;;;0.75;;
36105;SDS011;22159;55.736;38.048;2023-03-12T03:12:07;0.73;;;0.50;;
36105;SDS011;22159;55.736;38.048;2023-03-12T03:14:33;1.40;;;0.50;;
36105;SDS011;22159;55.736;38.048;2023-03-12T03:16:59;0.75;;;0.70;;
36105;SDS011;22159;55.736;38.048;2023-03-12T03:19:25;1.65;;;0.55;;
36105;SDS011;22159;55.736;38.048;2023-03-12T03:21:51;1.08;;;0.60;;
36105;SDS011;22159;55.736;38.048;2023-03-12T03:24:17;1.50;;;0.60;;
36105;SDS011;22159;55.736;38.048;2023-03-12T03:26:43;1.08;;;0.60;;
36105;SDS011;22159;55.736;38.048;2023-03-12T03:29:09;1.23;;;0.60;;
36105;SDS011;22159;55.736;38.048;2023-03-12T03:31:35;1.60;;;0.50;;
36105;SDS011;22159;55.736;38.048;2023-03-12T03:34:01;1.05;;;0.50;;
36105;SDS011;22159;55.736;38.048;2023-03-12T03:36:27;1.02;;;0.50;;
36105;SDS011;22159;55.736;38.048;2023-03-12T03:38:53;2.40;;;0.77;;
36105;SDS011;22159;55.736;38.048;2023-03-12T03:41:19;1.48;;;0.50;;
36105;SDS011;22159;55.736;38.048;2023-03-12T03:43:47;1.45;;;0.63;;
36105;SDS011;22159;55.736;38.048;2023-03-12T03:46:13;1.02;;;0.40;;
36105;SDS011;22159;55.736;38.048;2023-03-12T03:48:39;1.85;;;0.30;;
36105;SDS011;22159;55.736;38.048;2023-03-12T03:51:06;1.80;;;0.50;;
36105;SDS011;22159;55.736;38.048;2023-03-12T03:53:33;1.17;;;0.60;;
36105;SDS011;22159;55.736;38.048;2023-03-12T03:56:06;1.05;;;0.65;;
36105;SDS011;22159;55.736;38.048;2023-03-12T03:58:32;0.63;;;0.40;;
36105;SDS011;22159;55.736;38.048;2023-03-12T04:00:58;1.38;;;0.57;;
36105;SDS011;22159;55.736;38.048;2023-03-12T04:03:24;0.90;;;0.50;;
36105;SDS011;22159;55.736;38.048;2023-03-12T04:05:57;1.05;;;0.30;;
36105;SDS011;22159;55.736;38.048;2023-03-12T04:08:24;1.05;;;0.40;;
36105;SDS011;22159;55.736;38.048;2023-03-12T04:10:50;0.75;;;0.40;;
36105;SDS011;22159;55.736;38.048;2023-03-12T04:13:16;0.88;;;0.40;;
36105;SDS011;22159;55.736;38.048;2023-03-12T04:15:46;1.30;;;0.50;;
36105;SDS011;22159;55.736;38.048;2023-03-12T04:18:12;0.40;;;0.27;;
36105;SDS011;22159;55.736;38.048;2023-03-12T04:20:38;1.48;;;0.50;;
36105;SDS011;22159;55.736;38.048;2023-03-12T04:23:04;0.70;;;0.43;;
36105;SDS011;22159;55.736;38.048;2023-03-12T04:25:30;0.30;;;0.30;;
36105;SDS011;22159;55.736;38.048;2023-03-12T04:27:56;0.75;;;0.30;;
36105;SDS011;22159;55.736;38.048;2023-03-12T04:30:22;0.90;;;0.43;;
36105;SDS011;22159;55.736;38.048;2023-03-12T04:32:48;0.47;;;0.40;;
36105;SDS011;22159;55.736;38.048;2023-03-12T04:35:15;1.63;;;0.45;;
36105;SDS011;22159;55.736;38.048;2023-03-12T04:37:41;0.47;;;0.28;;
36105;SDS011;22159;55.736;38.048;2023-03-12T04:40:07;0.55;;;0.38;;
36105;SDS011;22159;55.736;38.048;2023-03-12T04:42:34;1.35;;;0.45;;
36105;SDS011;22159;55.736;38.048;2023-03-12T04:45:00;0.35;;;0.35;;
36105;SDS011;22159;55.736;38.048;2023-03-12T04:47:26;0.30;;;0.20;;
36105;SDS011;22159;55.736;38.048;2023-03-12T04:49:52;0.70;;;0.30;;
36105;SDS011;22159;55.736;38.048;2023-03-12T04:52:18;0.43;;;0.30;;
36105;SDS011;22159;55.736;38.048;2023-03-12T04:54:44;1.00;;;0.40;;
36105;SDS011;22159;55.736;38.048;2023-03-12T04:57:10;1.00;;;0.50;;
36105;SDS011;22159;55.736;38.048;2023-03-12T04:59:36;1.45;;;0.50;;
36105;SDS011;22159;55.736;38.048;2023-03-12T05:02:02;0.57;;;0.38;;
36105;SDS011;22159;55.736;38.048;2023-03-12T05:04:28;1.90;;;0.50;;
36105;SDS011;22159;55.736;38.048;2023-03-12T05:06:54;1.20;;;0.55;;
36105;SDS011;22159;55.736;38.048;2023-03-12T05:09:20;2.10;;;0.63;;
36105;SDS011;22159;55.736;38.048;2023-03-12T05:11:46;1.92;;;0.63;;
36105;SDS011;22159;55.736;38.048;2023-03-12T05:14:12;1.90;;;0.50;;
36105;SDS011;22159;55.736;38.048;2023-03-12T05:16:38;0.43;;;0.32;;
36105;SDS011;22159;55.736;38.048;2023-03-12T05:19:05;1.00;;;0.50;;
36105;SDS011;22159;55.736;38.048;2023-03-12T05:21:31;1.50;;;0.68;;
36105;SDS011;22159;55.736;38.048;2023-03-12T05:23:57;1.30;;;0.52;;
36105;SDS011;22159;55.736;38.048;2023-03-12T05:28:49;0.85;;;0.50;;
36105;SDS011;22159;55.736;38.048;2023-03-12T05:31:16;1.95;;;0.43;;
36105;SDS011;22159;55.736;38.048;2023-03-12T05:33:42;1.85;;;0.50;;
36105;SDS011;22159;55.736;38.048;2023-03-12T05:36:09;1.00;;;0.30;;
36105;SDS011;22159;55.736;38.048;2023-03-12T05:38:35;0.85;;;0.50;;
36105;SDS011;22159;55.736;38.048;2023-03-12T05:41:02;0.93;;;0.40;;
36105;SDS011;22159;55.736;38.048;2023-03-12T05:43:28;1.33;;;0.52;;
36105;SDS011;22159;55.736;38.048;2023-03-12T05:45:58;1.05;;;0.40;;
36105;SDS011;22159;55.736;38.048;2023-03-12T05:48:25;0.60;;;0.33;;
36105;SDS011;22159;55.736;38.048;2023-03-12T05:50:51;1.13;;;0.60;;
36105;SDS011;22159;55.736;38.048;2023-03-12T05:53:17;2.05;;;0.60;;
36105;SDS011;22159;55.736;38.048;2023-03-12T05:55:43;1.15;;;0.40;;
36105;SDS011;22159;55.736;38.048;2023-03-12T05:58:10;1.40;;;0.50;;
36105;SDS011;22159;55.736;38.048;2023-03-12T06:00:36;2.95;;;0.57;;
36105;SDS011;22159;55.736;38.048;2023-03-12T06:03:06;1.50;;;0.40;;
36105;SDS011;22159;55.736;38.048;2023-03-12T06:05:33;1.75;;;0.70;;
36105;SDS011;22159;55.736;38.048;2023-03-12T06:08:00;0.80;;;0.50;;
36105;SDS011;22159;55.736;38.048;2023-03-12T06:10:26;1.40;;;0.57;;
36105;SDS011;22159;55.736;38.048;2023-03-12T06:12:52;1.88;;;0.40;;
36105;SDS011;22159;55.736;38.048;2023-03-12T06:15:18;1.08;;;0.65;;
36105;SDS011;22159;55.736;38.048;2023-03-12T06:17:44;0.40;;;0.40;;
36105;SDS011;22159;55.736;38.048;2023-03-12T06:20:11;2.33;;;0.70;;
36105;SDS011;22159;55.736;38.048;2023-03-12T06:22:37;2.00;;;0.98;;
36105;SDS011;22159;55.736;38.048;2023-03-12T06:25:03;1.45;;;0.60;;
36105;SDS011;22159;55.736;38.048;2023-03-12T06:27:30;1.92;;;0.60;;
36105;SDS011;22159;55.736;38.048;2023-03-12T06:29:56;1.23;;;0.70;;
36105;SDS011;22159;55.736;38.048;2023-03-12T06:32:22;1.48;;;0.63;;
36105;SDS011;22159;55.736;38.048;2023-03-12T06:34:48;1.10;;;0.60;;
36105;SDS011;22159;55.736;38.048;2023-03-12T06:37:14;1.23;;;0.60;;
36105;SDS011;22159;55.736;38.048;2023-03-12T06:39:40;1.50;;;0.70;;
36105;SDS011;22159;55.736;38.048;2023-03-12T06:42:06;1.00;;;0.60;;
36105;SDS011;22159;55.736;38.048;2023-03-12T06:44:32;1.10;;;0.80;;
36105;SDS011;22159;55.736;38.048;2023-03-12T06:46:58;1.48;;;0.60;;
36105;SDS011;22159;55.736;38.048;2023-03-12T06:49:24;1.52;;;0.65;;
36105;SDS011;22159;55.736;38.048;2023-03-12T06:51:51;1.08;;;0.70;;
36105;SDS011;22159;55.736;38.048;2023-03-12T06:54:17;2.08;;;0.93;;
36105;SDS011;22159;55.736;38.048;2023-03-12T06:56:43;1.70;;;0.80;;
36105;SDS011;22159;55.736;38.048;2023-03-12T06:59:10;1.27;;;0.77;;
36105;SDS011;22159;55.736;38.048;2023-03-12T07:01:36;0.98;;;0.50;;
36105;SDS011;22159;55.736;38.048;2023-03-12T07:04:02;3.17;;;0.80;;
36105;SDS011;22159;55.736;38.048;2023-03-12T07:06:28;2.20;;;0.60;;
36105;SDS011;22159;55.736;38.048;2023-03-12T07:08:54;1.95;;;0.77;;
36105;SDS011;22159;55.736;38.048;2023-03-12T07:11:20;1.05;;;0.80;;
36105;SDS011;22159;55.736;38.048;2023-03-12T07:13:46;1.48;;;0.60;;
36105;SDS011;22159;55.736;38.048;2023-03-12T07:16:13;1.27;;;0.60;;
36105;SDS011;22159;55.736;38.048;2023-03-12T07:18:39;0.60;;;0.50;;
36105;SDS011;22159;55.736;38.048;2023-03-12T07:21:06;1.02;;;0.68;;
36105;SDS011;22159;55.736;38.048;2023-03-12T07:23:32;1.00;;;0.70;;
36105;SDS011;22159;55.736;38.048;2023-03-12T07:25:58;2.35;;;0.90;;
36105;SDS011;22159;55.736;38.048;2023-03-12T07:28:24;2.03;;;0.90;;
36105;SDS011;22159;55.736;38.048;2023-03-12T07:30:50;1.55;;;0.52;;
36105;SDS011;22159;55.736;38.048;2023-03-12T07:33:17;1.73;;;0.70;;
36105;SDS011;22159;55.736;38.048;2023-03-12T07:35:44;2.30;;;0.80;;
36105;SDS011;22159;55.736;38.048;2023-03-12T07:38:11;0.90;;;0.60;;
36105;SDS011;22159;55.736;38.048;2023-03-12T07:40:37;2.60;;;1.00;;
36105;SDS011;22159;55.736;38.048;2023-03-12T07:43:03;1.15;;;0.98;;
36105;SDS011;22159;55.736;38.048;2023-03-12T07:45:35;2.65;;;0.90;;
36105;SDS011;22159;55.736;38.048;2023-03-12T07:48:01;5.20;;;1.33;;
36105;SDS011;22159;55.736;38.048;2023-03-12T07:50:27;3.13;;;1.10;;
36105;SDS011;22159;55.736;38.048;2023-03-12T07:52:53;2.60;;;1.10;;
36105;SDS011;22159;55.736;38.048;2023-03-12T07:55:19;4.45;;;1.08;;
36105;SDS011;22159;55.736;38.048;2023-03-12T07:57:45;2.30;;;1.13;;
36105;SDS011;22159;55.736;38.048;2023-03-12T08:00:11;3.40;;;1.10;;
36105;SDS011;22159;55.736;38.048;2023-03-12T08:02:37;3.67;;;1.08;;
36105;SDS011;22159;55.736;38.048;2023-03-12T08:05:03;2.28;;;1.17;;
36105;SDS011;22159;55.736;38.048;2023-03-12T08:07:30;3.58;;;1.00;;
36105;SDS011;22159;55.736;38.048;2023-03-12T08:10:04;1.98;;;1.10;;
36105;SDS011;22159;55.736;38.048;2023-03-12T08:12:31;2.38;;;1.20;;
36105;SDS011;22159;55.736;38.048;2023-03-12T08:14:57;2.30;;;1.02;;
36105;SDS011;22159;55.736;38.048;2023-03-12T08:17:23;3.15;;;1.20;;
36105;SDS011;22159;55.736;38.048;2023-03-12T08:19:49;2.97;;;1.10;;
36105;SDS011;22159;55.736;38.048;2023-03-12T08:22:15;2.83;;;1.20;;
36105;SDS011;22159;55.736;38.048;2023-03-12T08:24:41;3.38;;;1.40;;
36105;SDS011;22159;55.736;38.048;2023-03-12T08:27:07;2.55;;;1.10;;
36105;SDS011;22159;55.736;38.048;2023-03-12T08:29:36;2.85;;;1.40;;
36105;SDS011;22159;55.736;38.048;2023-03-12T08:32:02;1.58;;;1.25;;
36105;SDS011;22159;55.736;38.048;2023-03-12T08:34:28;3.47;;;0.98;;
36105;SDS011;22159;55.736;38.048;2023-03-12T08:36:54;2.63;;;1.00;;
36105;SDS011;22159;55.736;38.048;2023-03-12T08:39:20;2.08;;;1.30;;
36105;SDS011;22159;55.736;38.048;2023-03-12T08:41:46;2.78;;;1.08;;
36105;SDS011;22159;55.736;38.048;2023-03-12T08:44:13;1.50;;;1.08;;
36105;SDS011;22159;55.736;38.048;2023-03-12T08:46:39;1.27;;;1.10;;
36105;SDS011;22159;55.736;38.048;2023-03-12T08:49:05;3.80;;;1.58;;
36105;SDS011;22159;55.736;38.048;2023-03-12T08:51:31;2.20;;;0.90;;
36105;SDS011;22159;55.736;38.048;2023-03-12T08:53:57;3.05;;;1.10;;
36105;SDS011;22159;55.736;38.048;2023-03-12T08:56:23;1.15;;;0.93;;
36105;SDS011;22159;55.736;38.048;2023-03-12T08:58:49;1.77;;;1.00;;
36105;SDS011;22159;55.736;38.048;2023-03-12T09:01:15;2.65;;;1.10;;
36105;SDS011;22159;55.736;38.048;2023-03-12T09:03:41;1.38;;;0.93;;
36105;SDS011;22159;55.736;38.048;2023-03-12T09:06:08;3.08;;;1.15;;
36105;SDS011;22159;55.736;38.048;2023-03-12T09:08:37;1.45;;;1.05;;
36105;SDS011;22159;55.736;38.048;2023-03-12T09:11:04;2.15;;;0.95;;
36105;SDS011;22159;55.736;38.048;2023-03-12T09:13:30;1.35;;;0.73;;
36105;SDS011;22159;55.736;38.048;2023-03-12T09:15:59;1.50;;;1.10;;
36105;SDS011;22159;55.736;38.048;2023-03-12T09:18:26;1.25;;;0.88;;
36105;SDS011;22159;55.736;38.048;2023-03-12T09:20:52;2.92;;;0.90;;
36105;SDS011;22159;55.736;38.048;2023-03-12T09:23:18;1.75;;;1.00;;
36105;SDS011;22159;55.736;38.048;2023-03-12T09:25:44;1.40;;;0.98;;
36105;SDS011;22159;55.736;38.048;2023-03-12T09:28:10;1.20;;;0.93;;
36105;SDS011;22159;55.736;38.048;2023-03-12T09:30:36;1.20;;;0.75;;
36105;SDS011;22159;55.736;38.048;2023-03-12T09:33:03;2.35;;;1.10;;
36105;SDS011;22159;55.736;38.048;2023-03-12T09:35:29;1.13;;;0.93;;
36105;SDS011;22159;55.736;38.048;2023-03-12T09:37:57;1.33;;;0.88;;
36105;SDS011;22159;55.736;38.048;2023-03-12T09:40:26;1.30;;;0.77;;
36105;SDS011;22159;55.736;38.048;2023-03-12T09:45:23;0.85;;;0.70;;
36105;SDS011;22159;55.736;38.048;2023-03-12T09:47:51;1.73;;;0.98;;
36105;SDS011;22159;55.736;38.048;2023-03-12T09:53:09;2.47;;;1.05;;
36105;SDS011;22159;55.736;38.048;2023-03-12T09:55:37;1.10;;;0.80;;
36105;SDS011;22159;55.736;38.048;2023-03-12T09:58:08;1.30;;;0.80;;
36105;SDS011;22159;55.736;38.048;2023-03-12T10:00:35;3.83;;;1.10;;
36105;SDS011;22159;55.736;38.048;2023-03-12T10:13:19;3.58;;;1.10;;
36105;SDS011;22159;55.736;38.048;2023-03-12T10:20:54;3.90;;;0.90;;
36105;SDS011;22159;55.736;38.048;2023-03-12T10:26:04;1.00;;;0.82;;
36105;SDS011;22159;55.736;38.048;2023-03-12T10:31:33;1.17;;;0.75;;
36105;SDS011;22159;55.736;38.048;2023-03-12T10:34:01;2.05;;;1.02;;
36105;SDS011;22159;55.736;38.048;2023-03-12T10:36:33;1.67;;;0.95;;
36105;SDS011;22159;55.736;38.048;2023-03-12T10:39:01;2.38;;;1.00;;
36105;SDS011;22159;55.736;38.048;2023-03-12T10:41:29;3.97;;;0.70;;
36105;SDS011;22159;55.736;38.048;2023-03-12T10:43:56;2.05;;;0.90;;
36105;SDS011;22159;55.736;38.048;2023-03-12T10:48:49;1.40;;;0.88;;
36105;SDS011;22159;55.736;38.048;2023-03-12T10:51:15;2.72;;;0.80;;
36105;SDS011;22159;55.736;38.048;2023-03-12T10:53:41;1.35;;;0.93;;
36105;SDS011;22159;55.736;38.048;2023-03-12T10:58:45;1.08;;;0.90;;
36105;SDS011;22159;55.736;38.048;2023-03-12T11:03:40;1.67;;;0.95;;
36105;SDS011;22159;55.736;38.048;2023-03-12T11:06:07;2.03;;;0.80;;
36105;SDS011;22159;55.736;38.048;2023-03-12T11:08:39;2.15;;;0.70;;
36105;SDS011;22159;55.736;38.048;2023-03-12T11:11:06;2.08;;;0.75;;
36105;SDS011;22159;55.736;38.048;2023-03-12T11:13:39;2.15;;;0.75;;
36105;SDS011;22159;55.736;38.048;2023-03-12T11:18:52;2.90;;;0.93;;
36105;SDS011;22159;55.736;38.048;2023-03-12T11:21:20;2.55;;;0.98;;
36105;SDS011;22159;55.736;38.048;2023-03-12T11:26:28;2.72;;;0.80;;
36105;SDS011;22159;55.736;38.048;2023-03-12T11:28:58;3.15;;;0.90;;
36105;SDS011;22159;55.736;38.048;2023-03-12T11:31:27;4.35;;;1.10;;
36105;SDS011;22159;55.736;38.048;2023-03-12T11:33:56;4.20;;;0.90;;
36105;SDS011;22159;55.736;38.048;2023-03-12T11:36:26;2.00;;;1.02;;
36105;SDS011;22159;55.736;38.048;2023-03-12T11:39:05;2.75;;;0.73;;
36105;SDS011;22159;55.736;38.048;2023-03-12T11:44:31;4.85;;;1.00;;
36105;SDS011;22159;55.736;38.048;2023-03-12T11:54:38;2.88;;;0.98;;
36105;SDS011;22159;55.736;38.048;2023-03-12T11:57:18;1.92;;;0.85;;
36105;SDS011;22159;55.736;38.048;2023-03-12T12:05:35;3.28;;;0.98;;
36105;SDS011;22159;55.736;38.048;2023-03-12T12:10:58;1.90;;;0.88;;
36105;SDS011;22159;55.736;38.048;2023-03-12T12:26:45;3.67;;;1.00;;
36105;SDS011;22159;55.736;38.048;2023-03-12T12:31:49;1.45;;;0.63;;
36105;SDS011;22159;55.736;38.048;2023-03-12T12:36:54;2.15;;;0.98;;
36105;SDS011;22159;55.736;38.048;2023-03-12T12:39:28;2.30;;;0.63;;
36105;SDS011;22159;55.736;38.048;2023-03-12T12:41:56;1.40;;;0.90;;
36105;SDS011;22159;55.736;38.048;2023-03-12T12:44:24;2.53;;;1.00;;
36105;SDS011;22159;55.736;38.048;2023-03-12T12:46:57;2.30;;;0.60;;
36105;SDS011;22159;55.736;38.048;2023-03-12T12:49:30;1.45;;;0.70;;
36105;SDS011;22159;55.736;38.048;2023-03-12T12:52:00;2.08;;;0.98;;
36105;SDS011;22159;55.736;38.048;2023-03-12T12:54:30;2.85;;;1.10;;
36105;SDS011;22159;55.736;38.048;2023-03-12T13:02:01;2.35;;;0.85;;
36105;SDS011;22159;55.736;38.048;2023-03-12T13:04:32;1.13;;;0.80;;
36105;SDS011;22159;55.736;38.048;2023-03-12T13:12:30;3.35;;;0.82;;
36105;SDS011;22159;55.736;38.048;2023-03-12T13:14:57;1.65;;;0.80;;
36105;SDS011;22159;55.736;38.048;2023-03-12T13:19:57;1.40;;;0.80;;
36105;SDS011;22159;55.736;38.048;2023-03-12T13:25:07;2.65;;;0.80;;
36105;SDS011;22159;55.736;38.048;2023-03-12T13:27:37;1.42;;;0.70;;
36105;SDS011;22159;55.736;38.048;2023-03-12T13:48:19;2.42;;;0.60;;
36105;SDS011;22159;55.736;38.048;2023-03-12T13:50:52;3.42;;;0.68;;
36105;SDS011;22159;55.736;38.048;2023-03-12T13:53:23;1.48;;;0.60;;
36105;SDS011;22159;55.736;38.048;2023-03-12T13:58:17;3.90;;;0.60;;
36105;SDS011;22159;55.736;38.048;2023-03-12T14:00:52;1.83;;;0.70;;
36105;SDS011;22159;55.736;38.048;2023-03-12T14:03:20;0.47;;;0.40;;
36105;SDS011;22159;55.736;38.048;2023-03-12T14:05:56;1.65;;;0.43;;
36105;SDS011;22159;55.736;38.048;2023-03-12T14:08:46;1.15;;;0.63;;
36105;SDS011;22159;55.736;38.048;2023-03-12T14:11:53;1.13;;;0.63;;
36105;SDS011;22159;55.736;38.048;2023-03-12T14:19:21;1.17;;;0.60;;
36105;SDS011;22159;55.736;38.048;2023-03-12T14:21:48;0.68;;;0.60;;
36105;SDS011;22159;55.736;38.048;2023-03-12T14:24:37;0.75;;;0.50;;
36105;SDS011;22159;55.736;38.048;2023-03-12T14:27:02;1.00;;;0.50;;
36105;SDS011;22159;55.736;38.048;2023-03-12T14:31:56;18.60;;;1.50;;
36105;SDS011;22159;55.736;38.048;2023-03-12T14:34:24;7.78;;;0.50;;
36105;SDS011;22159;55.736;38.048;2023-03-12T14:37:01;1.95;;;0.50;;
36105;SDS011;22159;55.736;38.048;2023-03-12T14:39:38;3.70;;;0.68;;
36105;SDS011;22159;55.736;38.048;2023-03-12T14:42:06;0.40;;;0.30;;
36105;SDS011;22159;55.736;38.048;2023-03-12T14:44:37;0.47;;;0.30;;
36105;SDS011;22159;55.736;38.048;2023-03-12T14:49:31;0.50;;;0.35;;
36105;SDS011;22159;55.736;38.048;2023-03-12T14:52:03;1.50;;;0.25;;
36105;SDS011;22159;55.736;38.048;2023-03-12T14:54:29;0.88;;;0.30;;
36105;SDS011;22159;55.736;38.048;2023-03-12T14:56:55;1.27;;;0.30;;
36105;SDS011;22159;55.736;38.048;2023-03-12T15:01:47;2.58;;;0.30;;
36105;SDS011;22159;55.736;38.048;2023-03-12T15:04:15;3.15;;;0.40;;
36105;SDS011;22159;55.736;38.048;2023-03-12T15:07:05;0.77;;;0.20;;
36105;SDS011;22159;55.736;38.048;2023-03-12T15:09:29;2.22;;;0.70;;
36105;SDS011;22159;55.736;38.048;2023-03-12T15:14:41;0.55;;;0.30;;
36105;SDS011;22159;55.736;38.048;2023-03-12T15:17:09;2.00;;;0.60;;
36105;SDS011;22159;55.736;38.048;2023-03-12T15:19:37;6.50;;;0.53;;
36105;SDS011;22159;55.736;38.048;2023-03-12T15:22:06;3.00;;;0.85;;
36105;SDS011;22159;55.736;38.048;2023-03-12T15:24:36;2.85;;;0.75;;
36105;SDS011;22159;55.736;38.048;2023-03-12T15:29:47;3.78;;;0.77;;
36105;SDS011;22159;55.736;38.048;2023-03-12T15:32:14;4.60;;;1.25;;
36105;SDS011;22159;55.736;38.048;2023-03-12T15:34:41;6.90;;;1.15;;
36105;SDS011;22159;55.736;38.048;2023-03-12T15:37:49;11.55;;;1.67;;
36105;SDS011;22159;55.736;38.048;2023-03-12T15:40:02;7.13;;;1.35;;
36105;SDS011;22159;55.736;38.048;2023-03-12T15:42:33;3.85;;;0.88;;
36105;SDS011;22159;55.736;38.048;2023-03-12T15:45:01;2.40;;;1.05;;
36105;SDS011;22159;55.736;38.048;2023-03-12T15:47:28;5.38;;;1.00;;
36105;SDS011;22159;55.736;38.048;2023-03-12T15:53:03;7.63;;;1.33;;
36105;SDS011;22159;55.736;38.048;2023-03-12T15:55:33;3.90;;;1.23;;
36105;SDS011;22159;55.736;38.048;2023-03-12T15:58:00;5.60;;;1.02;;
36105;SDS011;22159;55.736;38.048;2023-03-12T16:00:27;5.70;;;1.23;;
36105;SDS011;22159;55.736;38.048;2023-03-12T16:03:00;5.63;;;1.00;;
36105;SDS011;22159;55.736;38.048;2023-03-12T16:05:33;6.85;;;1.20;;
36105;SDS011;22159;55.736;38.048;2023-03-12T16:08:01;4.50;;;0.82;;
36105;SDS011;22159;55.736;38.048;2023-03-12T16:10:27;4.90;;;1.08;;
36105;SDS011;22159;55.736;38.048;2023-03-12T16:12:56;4.43;;;0.95;;
36105;SDS011;22159;55.736;38.048;2023-03-12T16:15:25;8.88;;;0.80;;
36105;SDS011;22159;55.736;38.048;2023-03-12T16:17:52;3.08;;;0.68;;
36105;SDS011;22159;55.736;38.048;2023-03-12T16:20:19;4.57;;;0.93;;
36105;SDS011;22159;55.736;38.048;2023-03-12T16:22:45;5.07;;;0.90;;
36105;SDS011;22159;55.736;38.048;2023-03-12T16:25:11;3.50;;;0.82;;
36105;SDS011;22159;55.736;38.048;2023-03-12T16:27:38;8.38;;;0.90;;
36105;SDS011;22159;55.736;38.048;2023-03-12T16:30:13;5.60;;;0.70;;
36105;SDS011;22159;55.736;38.048;2023-03-12T16:32:40;2.60;;;0.70;;
36105;SDS011;22159;55.736;38.048;2023-03-12T16:35:13;2.85;;;1.20;;
36105;SDS011;22159;55.736;38.048;2023-03-12T16:37:39;5.00;;;0.80;;
36105;SDS011;22159;55.736;38.048;2023-03-12T16:40:06;2.08;;;0.70;;
36105;SDS011;22159;55.736;38.048;2023-03-12T16:42:32;4.10;;;0.57;;
36105;SDS011;22159;55.736;38.048;2023-03-12T16:44:58;2.38;;;0.70;;
36105;SDS011;22159;55.736;38.048;2023-03-12T16:47:24;4.40;;;0.68;;
36105;SDS011;22159;55.736;38.048;2023-03-12T16:49:50;1.45;;;0.47;;
36105;SDS011;22159;55.736;38.048;2023-03-12T16:52:17;3.33;;;0.60;;
36105;SDS011;22159;55.736;38.048;2023-03-12T16:54:44;3.58;;;0.55;;
36105;SDS011;22159;55.736;38.048;2023-03-12T16:57:20;3.83;;;0.90;;